Event date (GMT)Market nameMarket typeBet typeWinner(s)
30-Jul 11:00  20 min / 30th July (20m) / 11.40 - 12.00 Winner Odds FTSE100 Up or Same    
30-Jul 11:00  Hourly / 30th July (Hr) / 11.00 - 12.00 Winner Odds FTSE100 Down    
30-Jul 10:40  20 min / 30th July (20m) / 11.20 - 11.40 Winner Odds FTSE100 Down    
30-Jul 10:20  20 min / 30th July (20m) / 11.00 - 11.20 Winner Odds FTSE100 Down    
30-Jul 10:00  20 min / 30th July (20m) / 10.40 - 11.00 Winner Odds FTSE100 Down    
30-Jul 10:00  Hourly / 30th July (Hr) / 10.00 - 11.00 Winner Odds FTSE100 Up or Same    
30-Jul 9:40  20 min / 30th July (20m) / 10.20 - 10.40 Winner Odds FTSE100 Down    
30-Jul 9:20  20 min / 30th July (20m) / 10.00 - 10.20 Winner Odds FTSE100 Up or Same    
30-Jul 9:00  20 min / 30th July (20m) / 09.40 - 10.00 Winner Odds FTSE100 Up or Same    
30-Jul 9:00  Hourly / 30th July (Hr) / 09.00 - 10.00 Winner Odds FTSE100 Up or Same    
30-Jul 8:40  20 min / 30th July (20m) / 09.20 - 09.40 Winner Odds FTSE100 Up or Same    
30-Jul 8:20  20 min / 30th July (20m) / 09.00 - 09.20 Winner Odds FTSE100 Up or Same    
30-Jul 8:00  Hourly / 30th July (Hr) / Previous - 09.00 Winner Odds FTSE100 Down    
29-Jul 20:00  20 min / 29th July (20m) / 20.40 - Close Winner Odds WallSt30 Down    
29-Jul 20:00  Daily Stocks / 29th July (Daily Stocks) / Amazon (AMZN US) Winner Odds Amazon Down    
29-Jul 20:00  Daily Stocks / 29th July (Daily Stocks) / Apple (AAPL US) Winner Odds Apple Down    
29-Jul 20:00  Daily Stocks / 29th July (Daily Stocks) / Facebook (FB US) Winner Odds Facebook Down    
29-Jul 20:00  Daily Stocks / 29th July (Daily Stocks) / Google (GOOG US) Winner Odds Google Down    
29-Jul 20:00  Daily Stocks / 29th July (Daily Stocks) / Twitter (TWTR US) Winner Odds Twitter Up or Same    
29-Jul 20:00  Daily Stocks / 29th July (Daily Stocks) / Intel (INTC US) Winner Odds Intel Down    
29-Jul 20:00  Daily Stocks / 29th July (Daily Stocks) / Microsoft (MSFT US) Winner Odds Microsoft Down    
29-Jul 19:40  20 min / 29th July (20m) / 20.20 - 20.40 Winner Odds WallSt30 Down    
29-Jul 19:20  20 min / 29th July (20m) / 20.00 - 20.20 Winner Odds WallSt30 Down    
29-Jul 19:00  20 min / 29th July (20m) / 19.40 - 20.00 Winner Odds WallSt30 Down    
29-Jul 18:40  20 min / 29th July (20m) / 19.20 - 19.40 Winner Odds WallSt30 Down    
29-Jul 18:20  20 min / 29th July (20m) / 19.00 - 19.20 Winner Odds WallSt30 Down    
29-Jul 18:00  20 min / 29th July (20m) / 18.40 - 19.00 Winner Odds WallSt30 Up or Same    
29-Jul 17:40  20 min / 29th July (20m) / 18.20 - 18.40 Winner Odds WallSt30 Down    
29-Jul 17:20  20 min / 29th July (20m) / 18.00 - 18.20 Winner Odds WallSt30 Down    
29-Jul 17:00  20 min / 29th July (20m) / 17.40 - 18.00 Winner Odds WallSt30 Up or Same    
29-Jul 16:40  20 min / 29th July (20m) / 17.20 - 17.40 Winner Odds WallSt30 Up or Same    
29-Jul 16:20  20 min / 29th July (20m) / 17.00 - 17.20 Winner Odds WallSt30 Up or Same    
29-Jul 16:00  20 min / 29th July (20m) / 16.40 - 17.00 Winner Odds WallSt30 Up or Same    
29-Jul 15:40  20 min / 29th July (20m) / 16.20 - 16.40 Winner Odds WallSt30 Down    
29-Jul 15:30  Hourly / 29th July (Hr) / 16.00 - Close Winner Odds FTSE100 Down    
29-Jul 15:30  Daily Stocks / 29th July (Daily Stocks) / ARM Holdings (ARM LN) Winner Odds ARM Holdings Down    
29-Jul 15:30  Daily Stocks / 29th July (Daily Stocks) / BSkyB Group (BSY LN) Winner Odds Sky Down    
29-Jul 15:30  Daily Stocks / 29th July (Daily Stocks) / BT Group (BT/A LN) Winner Odds BT Up or Same    
29-Jul 15:30  Daily Stocks / 29th July (Daily Stocks) / ITV (ITV LN) Winner Odds ITV Down    
29-Jul 15:30  Daily Stocks / 29th July (Daily Stocks) / Pace (PIC LN) Winner Odds Pace Up or Same    
29-Jul 15:30  Daily Stocks / 29th July (Daily Stocks) / Rightmove (RMV LN) Winner Odds Rightmove Up or Same    
29-Jul 15:30  Daily Stocks / 29th July (Daily Stocks) / Sage Group (SGE LN) Winner Odds Sage Up or Same    
29-Jul 15:20  20 min / 29th July (20m) / 16.00 - 16.20 Winner Odds WallSt30 Down    
29-Jul 15:20  20 min / 29th July (20m) / 16.00 - 16.20 Winner Odds FTSE100 Down    
29-Jul 15:00  20 min / 29th July (20m) / 15.40 - 16.00 Winner Odds FTSE100 Down    
29-Jul 15:00  Hourly / 29th July (Hr) / 15.00 - 16.00 Winner Odds FTSE100 Down    
29-Jul 15:00  20 min / 29th July (20m) / 15.40 - 16.00 Winner Odds WallSt30 Down    
29-Jul 14:40  20 min / 29th July (20m) / 15.20 - 15.40 Winner Odds WallSt30 Down    
29-Jul 14:40  20 min / 29th July (20m) / 15.20 - 15.40 Winner Odds FTSE100 Down    
29-Jul 14:20  20 min / 29th July (20m) / 15.00 - 15.20 Winner Odds FTSE100 Up or Same    
29-Jul 14:20  20 min / 29th July (20m) / 15.00 - 15.20 Winner Odds WallSt30 Up or Same    
29-Jul 14:00  20 min / 29th July (20m) / 14.40 - 15.00 Winner Odds FTSE100 Up or Same    
29-Jul 14:00  Hourly / 29th July (Hr) / 14.00 - 15.00 Winner Odds FTSE100 Up or Same    
29-Jul 13:40  20 min / 29th July (20m) / 14.20 - 14.40 Winner Odds FTSE100 Down    
29-Jul 13:20  20 min / 29th July (20m) / 14.00 - 14.20 Winner Odds FTSE100 Up or Same    
29-Jul 13:00  20 min / 29th July (20m) / 13.40 - 14.00 Winner Odds FTSE100 Down    
29-Jul 13:00  Hourly / 29th July (Hr) / 13.00 - 14.00 Winner Odds FTSE100 Up or Same    
29-Jul 12:40  20 min / 29th July (20m) / 13.20 - 13.40 Winner Odds FTSE100 Down    
29-Jul 12:20  20 min / 29th July (20m) / 13.00 - 13.20 Winner Odds FTSE100 Up or Same    
29-Jul 12:00  20 min / 29th July (20m) / 12.40 - 13.00 Winner Odds FTSE100 Down    
29-Jul 12:00  Hourly / 29th July (Hr) / 12.00 - 13.00 Winner Odds FTSE100 Up or Same    
29-Jul 11:40  20 min / 29th July (20m) / 12.20 - 12.40 Winner Odds FTSE100 Down    
29-Jul 11:20  20 min / 29th July (20m) / 12.00 - 12.20 Winner Odds FTSE100 Up or Same    
20-Jul 15:30  Daily / 29th July / Daily FTSE100 Winner Odds FTSE100 Up or Same    
Back to top